Time;durP1;ratioP1;P1;durP2;ratioP2;P2;SDS_P1;SDS_P2;PMS_P1;PMS_P2;Temp;Humidity;BMP_temperature;BMP_pressure;BME280_temperature;BME280_humidity;BME280_pressure;Samples;Min_cycle;Max_cycle;Signal;HPM_P1;HPM_P2
2023/03/23 00:02:12;;;;;;;17.58;12.95;;;10.80;99.90;;;;;;4904330;29;20044;-88
2023/03/23 00:04:38;;;;;;;17.83;12.90;;;10.80;99.90;;;;;;4907543;29;20048;-88
2023/03/23 00:07:03;;;;;;;20.52;13.48;;;10.80;99.90;;;;;;4913476;29;20075;-88
2023/03/23 00:09:40;;;;;;;19.73;13.00;;;10.80;99.90;;;;;;4929205;29;20410;-88
2023/03/23 00:12:07;;;;;;;21.92;13.00;;;10.80;99.90;;;;;;4925095;29;20096;-88
2023/03/23 00:14:41;;;;;;;19.23;12.38;;;10.80;99.90;;;;;;4911918;29;20047;-90
2023/03/23 00:17:10;;;;;;;16.48;11.43;;;10.80;99.90;;;;;;4930594;29;20054;-88
2023/03/23 00:19:46;;;;;;;18.27;12.00;;;11.10;99.90;;;;;;4908402;29;20032;-88
2023/03/23 00:22:13;;;;;;;16.77;11.75;;;10.90;99.90;;;;;;4913445;29;20118;-89
2023/03/23 00:24:39;;;;;;;15.68;12.65;;;11.00;99.90;;;;;;4924151;29;20495;-88
2023/03/23 00:27:05;;;;;;;16.83;11.35;;;10.90;99.90;;;;;;4909199;29;20118;-88
2023/03/23 00:29:32;;;;;;;15.05;11.05;;;10.90;99.90;;;;;;4923038;29;20043;-88
2023/03/23 00:31:57;;;;;;;18.20;11.75;;;10.90;99.90;;;;;;4906350;29;20562;-88
2023/03/23 00:34:24;;;;;;;23.75;12.13;;;10.90;99.90;;;;;;4897669;29;20048;-89
2023/03/23 00:36:56;;;;;;;15.20;10.60;;;10.90;99.90;;;;;;4917318;29;20043;-88
2023/03/23 00:39:25;;;;;;;17.77;12.23;;;11.40;99.90;;;;;;4907748;29;20040;-88
2023/03/23 00:41:51;;;;;;;18.00;11.27;;;11.00;99.90;;;;;;4926465;29;20042;-88
2023/03/23 00:44:17;;;;;;;20.13;11.32;;;10.90;99.90;;;;;;4931049;29;20129;-88
2023/03/23 00:46:49;;;;;;;20.13;10.95;;;10.90;99.90;;;;;;4916507;29;20086;-88
2023/03/23 00:49:18;;;;;;;16.15;10.15;;;10.90;99.90;;;;;;4927070;29;20570;-88
2023/03/23 00:51:44;;;;;;;19.95;11.50;;;10.90;99.90;;;;;;4912826;29;20079;-88
2023/03/23 00:54:11;;;;;;;15.77;11.38;;;11.00;99.90;;;;;;4910382;29;20051;-89
2023/03/23 00:56:39;;;;;;;22.00;11.90;;;11.50;99.90;;;;;;4914873;29;20136;-89
2023/03/23 00:59:05;;;;;;;17.10;10.88;;;10.90;99.90;;;;;;4927194;29;20521;-89
2023/03/23 01:01:31;;;;;;;19.10;11.57;;;10.90;99.90;;;;;;4924072;29;20040;-87
2023/03/23 01:04:00;;;;;;;15.27;10.98;;;10.90;99.90;;;;;;4932741;29;20599;-88
2023/03/23 01:06:35;;;;;;;18.10;11.68;;;10.80;99.90;;;;;;4929211;29;20329;-88
2023/03/23 01:09:02;;;;;;;;;;;10.80;99.90;;;;;;4913418;29;20499;-88
2023/03/23 01:11:28;;;;;;;11.48;6.55;;;10.70;99.90;;;;;;4928630;29;20065;-88
2023/03/23 01:13:56;;;;;;;12.77;7.35;;;10.70;99.90;;;;;;4927505;29;20122;-88
2023/03/23 01:16:22;;;;;;;11.98;7.65;;;10.90;99.90;;;;;;4916516;29;20044;-88
2023/03/23 01:18:47;;;;;;;12.80;8.60;;;10.70;99.90;;;;;;4897680;29;20045;-88
2023/03/23 01:21:16;;;;;;;11.35;8.35;;;10.70;99.90;;;;;;4913499;29;20609;-87
2023/03/23 01:23:43;;;;;;;13.70;8.93;;;10.70;99.90;;;;;;4900934;29;20072;-88
2023/03/23 01:26:16;;;;;;;16.27;9.25;;;10.70;99.90;;;;;;4927168;29;20134;-88
2023/03/23 01:28:43;;;;;;;15.80;10.17;;;10.80;99.90;;;;;;4912584;29;20410;-87
2023/03/23 01:31:12;;;;;;;16.20;9.25;;;10.80;99.90;;;;;;4912837;29;20119;-88
2023/03/23 01:33:39;;;;;;;16.85;9.93;;;11.50;99.90;;;;;;4929516;29;20411;-88
2023/03/23 01:36:11;;;;;;;13.45;8.60;;;11.10;99.90;;;;;;4916255;29;20062;-87
2023/03/23 01:38:37;;;;;;;12.65;8.00;;;10.80;99.90;;;;;;4927539;29;20491;-87
2023/03/23 01:41:04;;;;;;;9.93;6.82;;;10.80;99.90;;;;;;4926464;29;20068;-87
2023/03/23 01:43:30;;;;;;;13.98;8.25;;;10.80;99.90;;;;;;4911274;29;20055;-87
2023/03/23 01:45:55;;;;;;;11.52;6.60;;;10.80;99.90;;;;;;4905855;29;20048;-87
2023/03/23 01:48:27;;;;;;;12.82;7.20;;;10.80;99.90;;;;;;4932406;29;20044;-87
2023/03/23 01:51:04;;;;;;;11.43;6.88;;;10.80;99.90;;;;;;4927082;29;20043;-87
2023/03/23 01:53:37;;;;;;;11.95;6.38;;;10.80;99.90;;;;;;4918796;29;20077;-87
2023/03/23 01:56:04;;;;;;;11.98;6.20;;;10.80;99.90;;;;;;4910718;29;20069;-87
2023/03/23 01:58:33;;;;;;;11.68;5.65;;;10.80;99.90;;;;;;4915799;29;20059;-87
2023/03/23 02:01:03;;;;;;;10.10;5.78;;;10.80;99.90;;;;;;4914334;29;20543;-87
2023/03/23 02:03:31;;;;;;;10.07;5.82;;;10.80;99.90;;;;;;4904038;29;20100;-86
2023/03/23 02:06:00;;;;;;;11.35;5.30;;;11.50;99.90;;;;;;4931712;29;20055;-87
2023/03/23 02:08:28;;;;;;;8.25;4.93;;;10.90;99.90;;;;;;4911893;29;20040;-87
2023/03/23 02:10:55;;;;;;;10.45;5.55;;;10.90;99.90;;;;;;4931963;29;20040;-87
2023/03/23 02:13:21;;;;;;;9.98;5.32;;;10.90;99.90;;;;;;4929865;29;20043;-87
2023/03/23 02:16:03;;;;;;;11.82;5.28;;;10.90;99.90;;;;;;4908965;29;20043;-87
2023/03/23 02:19:01;;;;;;;12.02;5.32;;;10.90;99.90;;;;;;4910412;29;20130;-87
2023/03/23 02:21:45;;;;;;;8.00;4.45;;;10.90;99.90;;;;;;4899275;29;20491;-86
2023/03/23 02:24:37;;;;;;;10.45;6.05;;;11.00;99.90;;;;;;4911031;29;20126;-86
2023/03/23 02:27:16;;;;;;;11.88;4.80;;;10.90;99.90;;;;;;4924918;29;20444;-87
2023/03/23 02:30:09;;;;;;;9.30;4.85;;;11.00;99.90;;;;;;4931346;29;20044;-87
2023/03/23 02:33:11;;;;;;;7.63;4.93;;;11.00;99.90;;;;;;4932615;29;20054;-87
2023/03/23 02:35:46;;;;;;;9.00;4.45;;;11.00;99.90;;;;;;4913457;29;20470;-87
2023/03/23 02:38:43;;;;;;;9.02;4.20;;;10.90;99.90;;;;;;4928291;29;20040;-87
2023/03/23 02:41:11;;;;;;;7.85;4.32;;;10.90;99.90;;;;;;4927828;29;20031;-86
2023/03/23 02:43:43;;;;;;;10.00;4.55;;;10.90;99.90;;;;;;4931906;29;20044;-86
2023/03/23 02:48:53;;;;;;;10.20;4.30;;;10.90;99.90;;;;;;5184336;23;20052;-86
2023/03/23 02:51:21;;;;;;;11.23;4.82;;;10.90;99.90;;;;;;4905793;29;20542;-86
2023/03/23 02:53:53;;;;;;;8.80;4.05;;;10.90;99.90;;;;;;4912897;29;20111;-86
2023/03/23 02:56:20;;;;;;;8.93;3.88;;;11.50;99.90;;;;;;4913607;29;20079;-86
2023/03/23 02:58:46;;;;;;;7.85;4.13;;;10.90;99.90;;;;;;4909718;29;20106;-86
2023/03/23 03:01:38;;;;;;;7.72;4.18;;;10.90;99.90;;;;;;4911227;29;20040;-86
2023/03/23 03:04:13;;;;;;;7.72;3.33;;;10.90;99.90;;;;;;4900152;29;20471;-86
2023/03/23 03:06:50;;;;;;;9.35;5.10;;;10.90;99.90;;;;;;4909997;29;20059;-86
2023/03/23 03:09:41;;;;;;;10.25;3.80;;;10.90;99.90;;;;;;4909072;29;20070;-86
2023/03/23 03:12:41;;;;;;;8.57;4.00;;;10.90;99.90;;;;;;4891584;29;20040;-86
2023/03/23 03:15:29;;;;;;;8.15;3.70;;;10.90;99.90;;;;;;4894408;29;20056;-86
2023/03/23 03:18:00;;;;;;;10.30;4.32;;;10.90;99.90;;;;;;4906315;29;20063;-86
2023/03/23 03:20:29;;;;;;;8.35;3.85;;;11.00;99.90;;;;;;4893430;29;20040;-86
2023/03/23 03:22:58;;;;;;;7.28;3.88;;;10.90;99.90;;;;;;4909918;29;20120;-86
2023/03/23 03:25:27;;;;;;;6.32;3.25;;;10.90;99.90;;;;;;4888913;29;20091;-86
2023/03/23 03:27:54;;;;;;;8.20;4.28;;;10.90;99.90;;;;;;4893483;29;20048;-86
2023/03/23 03:30:27;;;;;;;7.07;3.17;;;10.90;99.90;;;;;;4911228;29;20110;-87
2023/03/23 03:32:54;;;;;;;11.23;3.92;;;10.90;99.90;;;;;;4908911;29;20441;-86
2023/03/23 03:35:24;;;;;;;7.88;3.53;;;10.90;99.90;;;;;;4907834;29;20049;-86
2023/03/23 03:37:53;;;;;;;6.95;3.17;;;10.90;99.90;;;;;;4892193;29;20114;-87
2023/03/23 03:40:22;;;;;;;10.88;3.25;;;11.00;99.90;;;;;;4918880;29;20102;-86
2023/03/23 03:42:48;;;;;;;11.80;3.13;;;11.00;99.90;;;;;;4912793;29;20055;-86
2023/03/23 03:45:20;;;;;;;7.63;3.10;;;11.00;99.90;;;;;;4908466;29;20036;-86
2023/03/23 03:47:46;;;;;;;10.52;3.65;;;11.00;99.90;;;;;;4908200;29;20067;-86
2023/03/23 03:50:12;;;;;;;10.52;3.70;;;11.10;99.90;;;;;;4909993;29;20122;-87
2023/03/23 03:52:39;;;;;;;7.75;3.70;;;11.00;99.90;;;;;;4911419;29;20048;-86
2023/03/23 03:55:06;;;;;;;7.25;3.55;;;10.90;99.90;;;;;;4911343;29;20072;-87
2023/03/23 03:57:33;;;;;;;7.57;3.92;;;10.90;99.90;;;;;;4912067;29;20523;-87
2023/03/23 03:59:59;;;;;;;10.27;4.20;;;10.80;99.90;;;;;;4911281;29;20121;-87
2023/03/23 04:02:24;;;;;;;11.88;4.28;;;10.80;99.90;;;;;;4894459;29;20242;-86
2023/03/23 04:04:52;;;;;;;8.93;4.05;;;10.80;99.90;;;;;;4912808;29;20043;-85
2023/03/23 04:07:18;;;;;;;9.45;4.32;;;10.80;99.90;;;;;;4913705;29;20067;-86
2023/03/23 04:09:46;;;;;;;9.20;4.30;;;10.80;99.90;;;;;;4915153;29;20148;-86
2023/03/23 04:12:13;;;;;;;12.05;5.38;;;10.80;99.90;;;;;;4918814;29;20454;-86
2023/03/23 04:14:38;;;;;;;8.93;4.78;;;10.80;99.90;;;;;;4914091;29;20480;-86
2023/03/23 04:17:04;;;;;;;9.48;4.45;;;10.80;99.90;;;;;;4918231;29;20456;-86
2023/03/23 04:19:32;;;;;;;9.68;4.47;;;10.70;99.90;;;;;;4914882;29;20123;-86
2023/03/23 04:21:58;;;;;;;8.27;4.10;;;10.70;99.90;;;;;;4914807;29;20506;-86
2023/03/23 04:24:24;;;;;;;8.90;4.57;;;10.80;99.90;;;;;;4913116;29;20339;-86
2023/03/23 04:26:54;;;;;;;8.23;4.22;;;11.00;99.90;;;;;;4906429;29;20048;-86
2023/03/23 04:29:20;;;;;;;10.02;4.68;;;10.70;99.90;;;;;;4911553;29;20182;-86
2023/03/23 04:31:46;;;;;;;10.43;4.47;;;10.80;99.90;;;;;;4915574;29;20044;-86
2023/03/23 04:34:13;;;;;;;8.60;4.70;;;10.80;99.90;;;;;;4914855;29;20063;-85
2023/03/23 04:36:40;;;;;;;8.63;4.32;;;11.00;99.90;;;;;;4922076;29;20048;-86
2023/03/23 04:39:09;;;;;;;10.85;5.13;;;10.90;99.90;;;;;;4897693;29;20451;-86
2023/03/23 04:41:38;;;;;;;10.05;5.18;;;10.90;99.90;;;;;;4910007;29;20111;-86
2023/03/23 04:44:04;;;;;;;11.73;5.40;;;10.80;99.90;;;;;;4907939;29;20054;-86
2023/03/23 04:46:30;;;;;;;10.40;4.90;;;10.80;99.90;;;;;;4915758;29;20052;-86
2023/03/23 04:49:00;;;;;;;11.30;4.85;;;10.80;99.90;;;;;;4922739;29;20059;-86
2023/03/23 04:51:28;;;;;;;9.25;3.08;;;10.80;99.90;;;;;;4917428;29;20124;-87
2023/03/23 04:53:54;;;;;;;12.27;4.65;;;10.70;99.90;;;;;;4914465;29;20112;-87
2023/03/23 04:56:20;;;;;;;9.15;4.57;;;10.70;99.90;;;;;;4914878;29;20040;-86
2023/03/23 04:58:46;;;;;;;10.55;5.18;;;10.60;99.90;;;;;;4885545;29;20134;-85
2023/03/23 05:01:13;;;;;;;9.65;3.78;;;10.60;99.90;;;;;;4897873;29;20088;-86
2023/03/23 05:03:40;;;;;;;8.95;3.75;;;10.60;99.90;;;;;;4916768;29;20047;-86
2023/03/23 05:06:07;;;;;;;12.05;2.88;;;10.50;99.90;;;;;;4918621;29;20091;-86
2023/03/23 05:08:33;;;;;;;10.07;2.38;;;10.50;99.90;;;;;;4910015;29;20040;-86
2023/03/23 05:11:00;;;;;;;6.07;2.15;;;10.50;99.90;;;;;;4912017;29;20047;-86
2023/03/23 05:13:28;;;;;;;9.80;2.60;;;10.50;99.90;;;;;;4911240;29;20035;-84
2023/03/23 05:15:54;;;;;;;9.52;3.10;;;10.40;99.90;;;;;;4895663;29;20649;-85
2023/03/23 05:18:20;;;;;;;8.43;3.05;;;9.90;99.90;;;;;;4905256;29;20084;-86
2023/03/23 05:20:46;;;;;;;7.05;2.72;;;10.40;99.90;;;;;;4909383;29;20044;-86
2023/03/23 05:23:12;;;;;;;7.57;2.67;;;10.30;99.90;;;;;;4916951;29;20040;-85
2023/03/23 05:25:41;;;;;;;9.63;2.67;;;10.30;99.90;;;;;;4914130;29;20040;-86
2023/03/23 05:28:08;;;;;;;8.32;2.33;;;10.30;99.90;;;;;;4894237;29;20119;-85
2023/03/23 05:30:35;;;;;;;7.78;2.50;;;10.30;99.90;;;;;;4910643;29;20040;-85
2023/03/23 05:33:00;;;;;;;5.97;1.92;;;10.30;99.90;;;;;;4913131;29;20032;-86
2023/03/23 05:35:27;;;;;;;9.60;2.35;;;10.30;99.90;;;;;;4914556;29;20494;-86
2023/03/23 05:37:53;;;;;;;7.63;2.60;;;10.30;99.90;;;;;;4915351;29;20558;-86
2023/03/23 05:40:20;;;;;;;7.65;2.30;;;10.30;99.90;;;;;;4897105;29;20080;-86
2023/03/23 05:42:46;;;;;;;8.05;2.67;;;10.20;99.90;;;;;;4913114;29;20098;-85
2023/03/23 05:45:12;;;;;;;9.70;2.15;;;10.20;99.90;;;;;;4910880;29;20115;-86
2023/03/23 05:47:39;;;;;;;9.25;3.38;;;10.20;99.90;;;;;;4914160;29;20084;-85
2023/03/23 05:50:08;;;;;;;13.07;3.05;;;10.30;99.90;;;;;;4913383;29;20532;-85
2023/03/23 05:52:36;;;;;;;7.63;1.80;;;10.30;99.90;;;;;;4895162;29;20059;-87
2023/03/23 05:55:03;;;;;;;10.52;2.42;;;10.30;99.90;;;;;;4915324;29;20040;-85
2023/03/23 05:57:30;;;;;;;10.30;2.40;;;10.30;99.90;;;;;;4911274;29;20052;-85
2023/03/23 05:59:57;;;;;;;14.70;2.45;;;10.30;99.90;;;;;;4909550;29;20115;-85
2023/03/23 06:02:24;;;;;;;10.23;2.10;;;10.30;99.90;;;;;;4911290;29;20443;-84
2023/03/23 06:04:50;;;;;;;11.98;2.83;;;10.30;99.90;;;;;;4910175;29;20123;-84
2023/03/23 06:07:16;;;;;;;13.23;2.70;;;10.30;99.90;;;;;;4913792;29;20036;-84
2023/03/23 06:09:42;;;;;;;11.48;2.33;;;10.30;99.90;;;;;;4913323;29;20044;-84
2023/03/23 06:12:09;;;;;;;11.63;2.60;;;10.30;99.90;;;;;;4911597;29;20044;-85
2023/03/23 06:14:36;;;;;;;10.73;2.47;;;10.40;99.90;;;;;;4909637;29;20127;-85
2023/03/23 06:17:02;;;;;;;10.70;2.45;;;10.30;99.90;;;;;;4913732;29;20044;-85
2023/03/23 06:19:28;;;;;;;16.02;3.25;;;10.40;99.90;;;;;;4895012;29;21036;-85
2023/03/23 06:21:56;;;;;;;12.32;2.50;;;10.40;99.90;;;;;;4914548;29;20103;-85
2023/03/23 06:24:22;;;;;;;7.00;2.17;;;10.40;99.90;;;;;;4912878;29;20487;-85
2023/03/23 06:26:48;;;;;;;10.15;2.33;;;10.40;99.90;;;;;;4912470;29;20080;-84
2023/03/23 06:29:14;;;;;;;16.13;2.63;;;10.50;99.90;;;;;;4913136;29;20050;-85
2023/03/23 06:31:42;;;;;;;13.90;3.22;;;10.40;99.90;;;;;;4912122;29;20044;-85
2023/03/23 06:34:09;;;;;;;20.30;3.70;;;10.50;99.90;;;;;;4913088;29;20056;-84
2023/03/23 06:36:35;;;;;;;13.05;2.17;;;10.50;99.90;;;;;;4912994;29;20055;-84
2023/03/23 06:39:04;;;;;;;15.07;2.50;;;10.50;99.90;;;;;;4912288;29;20040;-84
2023/03/23 06:41:31;;;;;;;14.40;2.55;;;10.50;99.90;;;;;;4896811;29;20046;-88
2023/03/23 06:43:56;;;;;;;13.32;2.65;;;10.40;99.90;;;;;;4895947;29;20038;-85
2023/03/23 06:46:22;;;;;;;12.52;2.90;;;10.50;99.90;;;;;;4912219;29;20048;-85
2023/03/23 06:48:49;;;;;;;11.25;2.70;;;10.40;99.90;;;;;;4912799;29;20503;-85
2023/03/23 06:51:15;;;;;;;11.82;2.22;;;10.50;99.90;;;;;;4917930;29;20119;-85
2023/03/23 06:53:41;;;;;;;14.18;2.67;;;10.50;99.90;;;;;;4907092;29;20127;-85
2023/03/23 06:56:07;;;;;;;15.77;2.75;;;10.50;99.90;;;;;;4914204;29;20135;-86
2023/03/23 06:58:33;;;;;;;20.05;2.88;;;10.50;99.90;;;;;;4911904;29;20036;-88
2023/03/23 07:00:59;;;;;;;18.08;3.00;;;10.50;99.90;;;;;;4911795;29;20047;-88
2023/03/23 07:03:26;;;;;;;12.32;2.72;;;10.50;99.90;;;;;;4915321;29;20138;-86
2023/03/23 07:05:51;;;;;;;22.00;2.75;;;10.50;99.90;;;;;;4912214;29;20146;-84
2023/03/23 07:08:17;;;;;;;16.10;3.25;;;10.50;99.90;;;;;;4913729;29;20048;-87
2023/03/23 07:10:43;;;;;;;12.25;2.63;;;10.50;99.90;;;;;;4913985;29;20128;-86
2023/03/23 07:13:09;;;;;;;11.20;2.28;;;10.50;99.90;;;;;;4910817;29;20051;-87
2023/03/23 07:15:34;;;;;;;23.67;3.17;;;10.50;99.90;;;;;;4910174;29;20166;-86
2023/03/23 07:18:00;;;;;;;20.65;3.75;;;10.50;99.90;;;;;;4914867;29;20498;-88
2023/03/23 07:20:26;;;;;;;19.45;4.03;;;10.60;99.90;;;;;;4914322;29;20102;-87
2023/03/23 07:22:54;;;;;;;19.52;3.40;;;10.50;99.90;;;;;;4917601;29;20126;-89
2023/03/23 07:25:19;;;;;;;16.48;3.05;;;10.60;99.90;;;;;;4911664;29;20092;-86
2023/03/23 07:27:46;;;;;;;14.82;2.92;;;10.60;99.90;;;;;;4916497;29;20048;-87
2023/03/23 07:30:14;;;;;;;17.38;2.97;;;10.60;99.90;;;;;;4912245;29;20059;-87
2023/03/23 07:32:40;;;;;;;14.63;3.13;;;10.60;99.90;;;;;;4913274;29;20044;-86
2023/03/23 07:35:07;;;;;;;18.35;3.55;;;10.50;99.90;;;;;;4911342;29;20097;-87
2023/03/23 07:37:33;;;;;;;17.00;3.90;;;10.50;99.90;;;;;;4911211;29;20044;-87
2023/03/23 07:39:58;;;;;;;23.90;3.80;;;10.50;99.90;;;;;;4911196;29;20410;-87
2023/03/23 07:42:24;;;;;;;15.18;3.10;;;10.60;99.90;;;;;;4895743;29;20081;-87
2023/03/23 07:44:49;;;;;;;19.02;3.42;;;10.60;99.90;;;;;;4912242;29;20122;-87
2023/03/23 07:47:17;;;;;;;19.00;3.97;;;10.60;99.90;;;;;;4911413;29;20044;-85
2023/03/23 07:49:43;;;;;;;21.23;3.55;;;10.70;99.90;;;;;;4906194;29;20099;-87
2023/03/23 07:52:10;;;;;;;14.95;2.65;;;10.70;99.90;;;;;;4905977;29;20072;-85
2023/03/23 07:54:36;;;;;;;20.10;3.15;;;10.70;99.90;;;;;;4910762;29;20052;-85
2023/03/23 07:57:02;;;;;;;19.23;3.33;;;10.80;99.90;;;;;;4910876;29;20095;-86
2023/03/23 07:59:28;;;;;;;21.70;3.70;;;10.80;99.90;;;;;;4910528;29;20106;-86
2023/03/23 08:01:53;;;;;;;18.85;3.38;;;10.90;99.90;;;;;;4912171;29;20041;-86
2023/03/23 08:04:19;;;;;;;17.70;3.67;;;10.90;99.90;;;;;;4911925;29;20530;-85
2023/03/23 08:06:45;;;;;;;20.40;4.93;;;10.90;99.90;;;;;;4908909;29;20048;-85
2023/03/23 08:09:11;;;;;;;22.42;3.63;;;11.00;99.90;;;;;;4914298;29;20048;-90
2023/03/23 08:11:38;;;;;;;13.60;2.75;;;11.00;99.90;;;;;;4910837;29;20094;-88
2023/03/23 08:14:03;;;;;;;18.58;3.30;;;11.00;99.90;;;;;;4906240;29;20077;-87
2023/03/23 08:16:29;;;;;;;16.92;3.50;;;11.00;99.90;;;;;;4910585;29;20380;-87
2023/03/23 08:18:56;;;;;;;16.90;3.67;;;11.00;99.90;;;;;;4911956;29;20036;-86
2023/03/23 08:21:22;;;;;;;17.95;3.42;;;11.10;99.90;;;;;;4895017;29;20476;-87
2023/03/23 08:23:48;;;;;;;17.88;4.03;;;11.10;99.90;;;;;;4910887;29;20036;-87
2023/03/23 08:26:15;;;;;;;17.33;2.35;;;11.10;99.90;;;;;;4908571;29;20036;-88
2023/03/23 08:28:42;;;;;;;21.90;3.40;;;11.10;99.90;;;;;;4893847;29;20498;-87
2023/03/23 08:31:10;;;;;;;18.60;3.90;;;11.20;99.90;;;;;;4912109;29;20050;-86
2023/03/23 08:33:36;;;;;;;23.67;3.88;;;11.20;99.90;;;;;;4911765;29;20087;-87
2023/03/23 08:36:03;;;;;;;17.80;3.35;;;11.20;99.90;;;;;;4907747;29;20482;-87
2023/03/23 08:38:29;;;;;;;23.05;4.13;;;11.30;99.90;;;;;;4909818;29;20282;-86
2023/03/23 08:41:04;;;;;;;20.05;4.05;;;11.30;99.90;;;;;;4909655;29;20042;-86
2023/03/23 08:43:31;;;;;;;23.50;4.25;;;11.30;99.90;;;;;;4889211;29;20491;-86
2023/03/23 08:45:58;;;;;;;21.10;3.85;;;11.50;99.90;;;;;;4908463;29;20111;-86
2023/03/23 08:48:24;;;;;;;20.02;4.63;;;11.30;99.90;;;;;;4909880;29;20051;-86
2023/03/23 08:50:51;;;;;;;23.35;3.95;;;11.30;99.90;;;;;;4910783;29;20044;-86
2023/03/23 08:53:18;;;;;;;18.38;4.15;;;11.30;99.90;;;;;;4914588;29;20044;-86
2023/03/23 08:55:44;;;;;;;29.17;4.38;;;11.30;99.90;;;;;;4914742;29;20087;-86
2023/03/23 08:58:09;;;;;;;23.48;4.47;;;11.30;99.90;;;;;;4915121;29;20079;-86
2023/03/23 09:00:35;;;;;;;21.27;4.50;;;11.30;99.90;;;;;;4897479;29;20090;-85
2023/03/23 09:03:01;;;;;;;25.08;4.38;;;11.40;99.90;;;;;;4914764;29;20144;-86
2023/03/23 09:05:28;;;;;;;22.58;4.38;;;11.40;99.90;;;;;;4914365;29;20048;-87
2023/03/23 09:07:58;;;;;;;21.25;3.92;;;11.50;99.90;;;;;;4915216;29;20391;-86
2023/03/23 09:10:26;;;;;;;23.08;4.55;;;11.50;99.90;;;;;;4910108;29;20124;-86
2023/03/23 09:12:53;;;;;;;25.13;5.25;;;11.40;99.90;;;;;;4914040;29;20048;-86
2023/03/23 09:15:19;;;;;;;30.45;4.65;;;11.60;99.90;;;;;;4914739;29;20074;-86
2023/03/23 09:17:51;;;;;;;20.13;3.85;;;11.70;99.90;;;;;;4915005;29;20048;-86
2023/03/23 09:20:20;;;;;;;19.15;4.30;;;11.70;99.90;;;;;;4913127;29;20047;-86
2023/03/23 09:22:49;;;;;;;26.63;4.40;;;12.10;99.90;;;;;;4915098;29;20489;-86
2023/03/23 09:25:20;;;;;;;22.67;4.55;;;11.80;99.90;;;;;;4914322;29;20028;-85
2023/03/23 09:27:56;;;;;;;21.65;4.30;;;11.80;99.90;;;;;;4909633;29;20425;-86
2023/03/23 09:30:32;;;;;;;18.52;3.65;;;11.80;99.90;;;;;;4914119;29;20032;-86
2023/03/23 09:33:01;;;;;;;22.63;4.30;;;11.80;99.90;;;;;;4909483;29;20051;-86
2023/03/23 09:35:27;;;;;;;25.50;4.43;;;11.80;99.90;;;;;;4913377;29;20067;-85
2023/03/23 09:37:53;;;;;;;19.58;3.83;;;11.90;99.90;;;;;;4907137;29;20046;-86
2023/03/23 09:40:50;;;;;;;21.98;4.28;;;11.90;99.90;;;;;;4911859;29;20084;-85
2023/03/23 09:43:28;;;;;;;22.80;4.35;;;11.90;99.90;;;;;;4912774;29;20510;-85
2023/03/23 09:46:13;;;;;;;27.40;4.28;;;11.90;99.90;;;;;;4909365;29;20031;-86
2023/03/23 09:48:58;;;;;;;19.73;3.25;;;11.80;99.90;;;;;;4894006;29;20487;-86
2023/03/23 09:51:38;;;;;;;19.25;3.35;;;11.90;99.90;;;;;;4913234;29;20491;-84
2023/03/23 09:54:17;;;;;;;16.60;3.40;;;11.90;99.90;;;;;;4914389;29;20036;-84
2023/03/23 09:56:44;;;;;;;25.55;4.70;;;12.10;99.90;;;;;;4913784;29;20407;-84
2023/03/23 09:59:22;;;;;;;17.95;3.75;;;12.10;99.90;;;;;;4914111;29;20107;-85
2023/03/23 10:01:52;;;;;;;17.75;3.70;;;12.20;99.90;;;;;;4917212;29;20044;-85
2023/03/23 10:04:39;;;;;;;19.77;4.90;;;12.20;99.90;;;;;;4916439;29;20044;-85
2023/03/23 10:07:19;;;;;;;22.42;3.55;;;12.10;99.90;;;;;;4911339;29;20055;-85
2023/03/23 10:09:50;;;;;;;17.40;3.35;;;11.90;99.90;;;;;;4896809;29;20040;-84
2023/03/23 10:12:28;;;;;;;19.90;3.42;;;11.90;99.90;;;;;;4897846;29;20513;-84
2023/03/23 10:15:08;;;;;;;20.63;3.40;;;11.80;99.90;;;;;;4897699;29;20094;-84
2023/03/23 10:18:01;;;;;;;17.23;3.72;;;11.90;99.90;;;;;;4912608;29;20095;-84
2023/03/23 10:20:45;;;;;;;16.20;3.42;;;12.10;99.90;;;;;;4907774;29;20410;-83
2023/03/23 10:23:34;;;;;;;19.73;3.00;;;12.20;99.90;;;;;;4912614;29;20047;-83
2023/03/23 10:26:28;;;;;;;23.63;4.55;;;12.40;99.90;;;;;;4910744;29;20510;-83
2023/03/23 10:29:11;;;;;;;18.95;3.92;;;12.50;99.90;;;;;;4909521;29;20043;-83
2023/03/23 10:31:41;;;;;;;14.63;3.30;;;12.60;99.90;;;;;;4911161;29;20056;-84
2023/03/23 10:34:43;;;;;;;15.32;3.75;;;12.60;99.90;;;;;;4913448;29;20411;-83
2023/03/23 10:37:36;;;;;;;21.23;3.85;;;12.60;99.90;;;;;;4895925;29;20056;-83
2023/03/23 10:40:09;;;;;;;19.77;3.58;;;12.60;99.90;;;;;;4915035;29;20039;-84
2023/03/23 10:42:38;;;;;;;16.77;3.83;;;12.60;99.90;;;;;;4916867;29;20562;-84
2023/03/23 10:45:34;;;;;;;13.10;4.20;;;12.60;99.90;;;;;;4916201;29;20044;-85
2023/03/23 10:48:12;;;;;;;20.45;3.70;;;12.70;99.90;;;;;;4889630;29;20440;-84
2023/03/23 10:50:39;;;;;;;17.20;2.97;;;12.70;99.90;;;;;;4907682;29;20049;-84
2023/03/23 10:53:34;;;;;;;17.92;3.85;;;12.70;99.90;;;;;;4912056;29;20036;-84
2023/03/23 10:56:00;;;;;;;12.57;3.10;;;12.80;99.90;;;;;;4911899;29;20051;-84
2023/03/23 10:58:29;;;;;;;20.45;3.38;;;12.90;99.90;;;;;;4914421;29;20044;-85
2023/03/23 11:00:56;;;;;;;16.40;3.35;;;13.00;99.90;;;;;;4911439;29;20040;-85
2023/03/23 11:03:24;;;;;;;16.67;2.50;;;13.10;99.90;;;;;;4912248;29;20123;-85
2023/03/23 11:05:50;;;;;;;14.27;2.33;;;13.20;99.90;;;;;;4912448;29;20028;-85
2023/03/23 11:08:25;;;;;;;13.50;2.15;;;13.30;99.90;;;;;;4910429;29;20040;-84
2023/03/23 11:11:18;;;;;;;10.50;2.30;;;13.40;99.90;;;;;;4912537;29;20036;-84
2023/03/23 11:13:46;;;;;;;11.35;2.13;;;13.40;99.90;;;;;;4909166;29;20052;-85
2023/03/23 11:16:46;;;;;;;17.27;2.22;;;13.40;99.90;;;;;;4910707;29;20032;-84
2023/03/23 11:19:15;;;;;;;12.65;2.38;;;13.40;99.90;;;;;;4866351;29;20525;-84
2023/03/23 11:21:49;;;;;;;16.88;2.80;;;13.50;99.90;;;;;;4912568;29;20110;-85
2023/03/23 11:24:16;;;;;;;14.82;2.45;;;13.70;99.90;;;;;;4906511;29;20119;-85
2023/03/23 11:26:44;;;;;;;12.48;2.30;;;14.10;99.90;;;;;;4911985;29;20090;-84
2023/03/23 11:29:19;;;;;;;17.67;2.80;;;14.10;99.90;;;;;;4911338;29;20047;-84
2023/03/23 11:31:50;;;;;;;13.10;2.17;;;14.20;99.90;;;;;;4911229;29;20051;-84
2023/03/23 11:34:20;;;;;;;13.88;2.00;;;14.30;99.90;;;;;;4907872;29;20054;-84
2023/03/23 11:37:06;;;;;;;13.93;2.72;;;14.30;99.90;;;;;;4892602;29;20491;-84
2023/03/23 11:39:34;;;;;;;14.60;3.00;;;14.20;99.90;;;;;;4910514;29;20048;-84
2023/03/23 11:42:11;;;;;;;13.52;2.08;;;14.30;99.90;;;;;;4911289;29;20096;-84
2023/03/23 11:44:44;;;;;;;14.25;2.88;;;14.40;99.90;;;;;;4909647;29;20043;-84
2023/03/23 11:47:28;;;;;;;11.25;2.38;;;14.50;99.90;;;;;;4911966;29;20039;-84
2023/03/23 11:50:10;;;;;;;11.10;1.98;;;14.60;99.90;;;;;;4911945;29;20558;-85
2023/03/23 11:53:01;;;;;;;14.73;2.50;;;14.60;99.90;;;;;;4910828;29;20052;-85
2023/03/23 11:55:32;;;;;;;8.27;1.73;;;14.60;99.90;;;;;;4897372;29;20052;-85
2023/03/23 11:58:05;;;;;;;8.43;2.33;;;14.50;99.90;;;;;;4909044;29;20127;-85
2023/03/23 12:00:31;;;;;;;15.10;2.50;;;14.30;99.90;;;;;;4912038;29;20076;-86
2023/03/23 12:03:04;;;;;;;11.95;1.95;;;14.10;99.90;;;;;;4911361;29;20483;-85
2023/03/23 12:05:50;;;;;;;10.45;1.80;;;14.10;99.90;;;;;;4906863;29;20047;-86
2023/03/23 12:08:38;;;;;;;16.98;2.47;;;14.10;99.90;;;;;;4910441;29;20058;-85
2023/03/23 12:11:06;;;;;;;16.08;2.35;;;14.10;99.90;;;;;;4910234;29;20514;-85
2023/03/23 12:13:55;;;;;;;10.68;2.72;;;14.10;99.90;;;;;;4908088;29;20063;-84
2023/03/23 12:16:43;;;;;;;11.30;2.55;;;14.00;99.90;;;;;;4909007;29;20091;-85
2023/03/23 12:19:25;;;;;;;12.18;2.30;;;14.10;99.90;;;;;;4910404;29;20048;-85
2023/03/23 12:22:17;;;;;;;15.90;2.22;;;14.30;99.90;;;;;;4910056;29;20052;-85
2023/03/23 12:25:05;;;;;;;17.00;2.10;;;14.60;99.90;;;;;;4907140;29;20102;-86
2023/03/23 12:27:52;;;;;;;14.95;2.03;;;14.70;99.90;;;;;;4910470;29;20043;-85
2023/03/23 12:30:45;;;;;;;8.93;1.65;;;14.90;99.90;;;;;;4914297;29;20514;-86
2023/03/23 12:33:32;;;;;;;12.55;2.25;;;15.00;99.90;;;;;;4913474;29;20091;-86
2023/03/23 12:36:11;;;;;;;9.88;1.55;;;15.00;99.90;;;;;;4896973;29;20483;-86
2023/03/23 12:39:19;;;;;;;13.13;2.67;;;15.00;99.90;;;;;;4913278;29;20526;-85
2023/03/23 12:42:15;;;;;;;14.23;1.98;;;15.00;99.90;;;;;;4882907;29;20458;-86
2023/03/23 12:44:52;;;;;;;12.57;2.30;;;15.00;99.90;;;;;;4910736;29;20428;-85
2023/03/23 12:47:24;;;;;;;10.07;2.30;;;14.90;99.90;;;;;;4913912;29;20040;-85
2023/03/23 12:50:03;;;;;;;10.13;2.13;;;14.90;99.90;;;;;;4912899;29;20079;-85
2023/03/23 12:52:32;;;;;;;12.10;2.65;;;14.90;99.90;;;;;;4915003;29;20052;-85
2023/03/23 12:55:18;;;;;;;14.02;2.45;;;14.60;99.90;;;;;;4913925;29;20422;-85
2023/03/23 12:57:59;;;;;;;11.80;2.42;;;14.60;99.90;;;;;;4910473;29;20091;-85
2023/03/23 13:00:48;;;;;;;12.75;2.22;;;14.70;99.90;;;;;;4912280;29;20043;-85
2023/03/23 13:03:18;;;;;;;12.63;2.15;;;14.60;99.90;;;;;;4913301;29;20099;-85